Time;durP1;ratioP1;P1;durP2;ratioP2;P2;SDS_P1;SDS_P2;PMS_P1;PMS_P2;Temp;Humidity;BMP_temperature;BMP_pressure;BME280_temperature;BME280_humidity;BME280_pressure;Samples;Min_cycle;Max_cycle;Signal;HPM_P1;HPM_P2
2022/05/15 00:02:21;;;;;;;0.20;0.20;;;9.80;99.90;;;;;;5091609;28;20383;-91
2022/05/15 00:04:46;;;;;;;0.20;0.20;;;9.80;99.90;;;;;;5091765;28;20431;-89
2022/05/15 00:07:12;;;;;;;0.20;0.20;;;9.80;99.90;;;;;;5090534;28;20185;-91
2022/05/15 00:09:38;;;;;;;0.20;0.20;;;9.70;99.90;;;;;;5091590;28;20181;-92
2022/05/15 00:12:05;;;;;;;0.30;0.30;;;9.60;99.90;;;;;;5090821;28;20176;-90
2022/05/15 00:14:31;;;;;;;0.20;0.20;;;9.60;99.90;;;;;;5092135;28;20208;-92
2022/05/15 00:16:57;;;;;;;0.20;0.20;;;9.60;99.90;;;;;;5089287;28;20431;-91
2022/05/15 00:19:23;;;;;;;0.20;0.20;;;9.60;99.90;;;;;;5087930;28;20449;-89
2022/05/15 00:21:48;;;;;;;0.20;0.20;;;9.60;99.90;;;;;;5089719;28;20584;-90
2022/05/15 00:24:14;;;;;;;0.20;0.20;;;9.60;99.90;;;;;;5090543;28;20191;-90
2022/05/15 00:26:40;;;;;;;0.20;0.20;;;9.60;99.90;;;;;;5090782;28;20185;-91
2022/05/15 00:29:05;;;;;;;0.20;0.20;;;9.60;99.90;;;;;;5073559;28;20470;-91
2022/05/15 00:31:31;;;;;;;0.20;0.20;;;9.60;99.90;;;;;;5090192;28;20192;-92
2022/05/15 00:33:56;;;;;;;0.20;0.20;;;9.60;99.90;;;;;;5090000;28;20177;-91
2022/05/15 00:36:22;;;;;;;0.20;0.20;;;9.60;99.90;;;;;;5089876;28;20566;-91
2022/05/15 00:38:47;;;;;;;0.20;0.20;;;9.40;99.90;;;;;;5092129;28;20624;-92
2022/05/15 00:41:14;;;;;;;0.20;0.20;;;9.40;99.90;;;;;;5090475;28;20208;-93
2022/05/15 00:43:48;;;;;;;0.20;0.20;;;9.40;99.90;;;;;;5072130;28;20189;-91
2022/05/15 00:46:21;;;;;;;0.20;0.20;;;9.40;99.90;;;;;;5089177;28;20461;-92
2022/05/15 00:48:48;;;;;;;0.20;0.20;;;9.40;99.90;;;;;;5091282;28;20867;-91
2022/05/15 00:51:23;;;;;;;0.20;0.20;;;9.30;99.90;;;;;;5089426;28;20462;-91
2022/05/15 00:53:54;;;;;;;0.20;0.20;;;9.20;99.90;;;;;;5088718;28;20903;-90
2022/05/15 00:56:23;;;;;;;0.20;0.20;;;9.00;99.90;;;;;;5069612;28;20447;-91
2022/05/15 00:59:02;;;;;;;0.20;0.20;;;9.10;99.90;;;;;;5088445;28;20451;-90
2022/05/15 01:01:27;;;;;;;0.20;0.20;;;9.20;99.90;;;;;;5091623;28;20593;-91
2022/05/15 01:03:53;;;;;;;0.30;0.30;;;9.20;99.90;;;;;;5090196;28;20535;-91
2022/05/15 01:06:19;;;;;;;0.20;0.20;;;9.10;99.90;;;;;;5090607;28;20177;-88
2022/05/15 01:08:45;;;;;;;0.20;0.20;;;9.00;99.90;;;;;;5088948;28;20193;-89
2022/05/15 01:11:15;;;;;;;0.20;0.20;;;9.00;99.90;;;;;;5090192;28;21185;-92
2022/05/15 01:13:43;;;;;;;0.20;0.20;;;9.30;99.90;;;;;;5090446;28;20185;-92
2022/05/15 01:16:09;;;;;;;0.20;0.20;;;9.30;99.90;;;;;;5090969;28;20427;-91
2022/05/15 01:18:37;;;;;;;0.20;0.20;;;9.30;99.90;;;;;;5087615;28;20440;-89
2022/05/15 01:21:35;;;;;;;0.20;0.20;;;9.30;99.90;;;;;;5086573;28;20467;-88
2022/05/15 01:24:03;;;;;;;0.20;0.20;;;9.10;99.90;;;;;;5089389;28;20451;-91
2022/05/15 01:26:30;;;;;;;0.30;0.30;;;9.20;99.90;;;;;;5090753;28;20467;-93
2022/05/15 01:28:56;;;;;;;0.30;0.30;;;9.10;99.90;;;;;;5094394;28;20974;-92
2022/05/15 01:31:23;;;;;;;0.20;0.20;;;9.20;99.90;;;;;;5076152;28;20814;-93
2022/05/15 01:33:50;;;;;;;0.20;0.20;;;9.10;99.90;;;;;;5078468;28;21024;-92
2022/05/15 01:36:17;;;;;;;0.20;0.20;;;9.00;99.90;;;;;;5095714;28;20427;-90
2022/05/15 01:38:43;;;;;;;0.30;0.30;;;8.90;99.90;;;;;;5095909;28;20439;-90
2022/05/15 01:41:12;;;;;;;0.20;0.20;;;8.80;99.90;;;;;;5095515;28;20512;-91
2022/05/15 01:43:39;;;;;;;0.20;0.20;;;8.70;99.90;;;;;;5095608;28;20177;-90
2022/05/15 01:46:04;;;;;;;0.30;0.30;;;8.70;99.90;;;;;;5094009;28;20431;-90
2022/05/15 01:48:30;;;;;;;0.20;0.20;;;8.60;99.90;;;;;;5095440;28;20500;-91
2022/05/15 01:50:56;;;;;;;0.20;0.20;;;8.60;99.90;;;;;;5078148;28;20195;-90
2022/05/15 01:53:21;;;;;;;0.20;0.20;;;8.60;99.90;;;;;;5094605;28;20466;-91
2022/05/15 01:55:47;;;;;;;0.20;0.20;;;8.60;99.90;;;;;;5075911;28;20181;-89
2022/05/15 01:58:12;;;;;;;0.20;0.20;;;8.60;99.90;;;;;;5095127;28;20653;-90
2022/05/15 02:00:38;;;;;;;0.20;0.20;;;8.70;99.90;;;;;;5096025;28;20216;-90
2022/05/15 02:03:04;;;;;;;0.30;0.30;;;8.60;99.90;;;;;;5090332;28;20182;-90
2022/05/15 02:05:29;;;;;;;0.20;0.20;;;8.60;99.90;;;;;;5074913;28;20185;-91
2022/05/15 02:07:55;;;;;;;0.20;0.20;;;8.60;99.90;;;;;;5078722;28;20280;-90
2022/05/15 02:10:21;;;;;;;0.30;0.30;;;8.60;99.90;;;;;;5095818;28;20217;-91
2022/05/15 02:12:47;;;;;;;0.20;0.20;;;8.50;99.90;;;;;;5094219;28;20269;-91
2022/05/15 02:15:13;;;;;;;0.20;0.20;;;8.50;99.90;;;;;;5082748;28;20443;-92
2022/05/15 02:17:39;;;;;;;0.30;0.30;;;8.40;99.90;;;;;;5094078;28;20442;-93
2022/05/15 02:20:06;;;;;;;0.20;0.20;;;8.40;99.90;;;;;;5086910;28;20589;-93
2022/05/15 02:22:31;;;;;;;0.20;0.20;;;8.30;99.90;;;;;;5095423;28;20247;-91
2022/05/15 02:24:57;;;;;;;0.20;0.20;;;8.40;99.90;;;;;;5093963;28;20902;-91
2022/05/15 02:27:22;;;;;;;0.30;0.30;;;8.30;99.90;;;;;;5094941;28;20239;-93
2022/05/15 02:29:48;;;;;;;0.30;0.30;;;8.30;99.90;;;;;;5092887;28;20644;-92
2022/05/15 02:32:14;;;;;;;0.67;0.67;;;8.20;99.90;;;;;;5076648;28;20185;-94
2022/05/15 02:34:40;;;;;;;0.40;0.40;;;8.20;99.90;;;;;;5075187;28;20182;-92
2022/05/15 02:37:06;;;;;;;0.23;0.23;;;8.10;99.90;;;;;;5077417;28;20439;-91
2022/05/15 02:39:31;;;;;;;0.20;0.20;;;8.10;99.90;;;;;;5092938;28;20196;-93
2022/05/15 02:41:57;;;;;;;0.27;0.27;;;8.00;99.90;;;;;;5094971;28;20467;-91
2022/05/15 02:44:22;;;;;;;0.40;0.40;;;8.10;99.90;;;;;;5076251;28;20645;-92
2022/05/15 02:46:48;;;;;;;0.53;0.53;;;8.10;99.90;;;;;;5094584;28;20644;-94
2022/05/15 02:51:57;;;;;;;0.40;0.40;;;8.00;99.90;;;;;;5091912;28;20235;-92
2022/05/15 02:54:23;;;;;;;0.70;0.70;;;8.10;99.90;;;;;;5092365;28;20863;-92
2022/05/15 02:56:49;;;;;;;0.20;0.20;;;8.00;99.90;;;;;;5088597;28;20188;-93
2022/05/15 02:59:14;;;;;;;0.30;0.30;;;8.10;99.90;;;;;;5076722;28;20181;-93
2022/05/15 03:01:40;;;;;;;0.30;0.30;;;8.10;99.90;;;;;;5091766;28;20224;-93
2022/05/15 03:04:06;;;;;;;0.40;0.40;;;8.10;99.90;;;;;;5078495;28;20196;-92
2022/05/15 03:06:31;;;;;;;0.63;0.63;;;8.00;99.90;;;;;;5091845;28;20181;-92
2022/05/15 03:08:57;;;;;;;0.37;0.37;;;8.00;99.90;;;;;;5073632;28;20178;-92
2022/05/15 03:11:23;;;;;;;0.20;0.20;;;8.00;99.90;;;;;;5094033;28;20219;-92
2022/05/15 03:13:49;;;;;;;0.30;0.30;;;8.00;99.90;;;;;;5074026;28;20268;-92
2022/05/15 03:16:18;;;;;;;0.20;0.20;;;8.00;99.90;;;;;;5094250;28;20569;-93
2022/05/15 03:18:47;;;;;;;0.40;0.40;;;7.90;99.90;;;;;;5076169;28;20185;-93
2022/05/15 03:21:28;;;;;;;0.30;0.30;;;7.90;99.90;;;;;;5075999;28;20974;-94
2022/05/15 03:23:55;;;;;;;0.30;0.30;;;7.90;99.90;;;;;;5075074;28;20974;-92
2022/05/15 03:26:20;;;;;;;0.30;0.30;;;7.90;99.90;;;;;;5072788;28;20511;-92
2022/05/15 03:28:46;;;;;;;0.30;0.30;;;7.80;99.90;;;;;;5085953;28;20570;-92
2022/05/15 03:31:11;;;;;;;0.60;0.60;;;7.80;99.90;;;;;;5093282;28;20193;-93
2022/05/15 03:33:38;;;;;;;0.30;0.30;;;7.80;99.90;;;;;;5059459;28;20190;-93
2022/05/15 03:36:10;;;;;;;0.53;0.53;;;7.80;99.90;;;;;;5084224;28;20185;-93
2022/05/15 03:38:36;;;;;;;0.20;0.20;;;7.80;99.90;;;;;;5074886;28;20431;-93
2022/05/15 03:41:02;;;;;;;0.20;0.20;;;7.80;99.90;;;;;;5088756;28;20499;-92
2022/05/15 03:43:27;;;;;;;0.20;0.20;;;7.70;99.90;;;;;;5075062;28;20482;-93
2022/05/15 03:45:53;;;;;;;0.20;0.20;;;7.70;99.90;;;;;;5094050;28;20224;-92
2022/05/15 03:48:18;;;;;;;0.30;0.30;;;7.70;99.90;;;;;;5092681;28;20190;-93
2022/05/15 03:50:44;;;;;;;0.20;0.20;;;7.80;99.90;;;;;;5076219;28;20186;-92
2022/05/15 03:53:09;;;;;;;0.30;0.30;;;7.80;99.90;;;;;;5075633;28;20217;-93
2022/05/15 03:55:34;;;;;;;0.23;0.23;;;7.70;99.90;;;;;;5086836;28;20553;-93
2022/05/15 03:58:00;;;;;;;0.27;0.27;;;7.80;99.90;;;;;;5091435;28;20181;-93
2022/05/15 04:00:28;;;;;;;0.20;0.20;;;7.80;99.90;;;;;;5092177;28;20181;-92
2022/05/15 04:02:54;;;;;;;0.30;0.30;;;7.80;99.90;;;;;;5076091;28;20520;-92
2022/05/15 04:05:20;;;;;;;0.20;0.20;;;7.80;99.90;;;;;;5092931;28;20427;-92
2022/05/15 04:07:48;;;;;;;0.20;0.20;;;7.80;99.90;;;;;;5069366;28;20246;-93
2022/05/15 04:10:16;;;;;;;0.20;0.20;;;7.70;99.90;;;;;;5093861;28;20501;-92
2022/05/15 04:12:41;;;;;;;0.20;0.20;;;7.70;99.90;;;;;;5075087;28;20431;-92
2022/05/15 04:15:08;;;;;;;0.20;0.20;;;7.70;99.90;;;;;;5092966;28;20508;-93
2022/05/15 04:17:38;;;;;;;0.20;0.20;;;7.70;99.90;;;;;;5093473;28;20185;-93
2022/05/15 04:20:04;;;;;;;0.20;0.20;;;7.70;99.90;;;;;;5070613;28;20439;-93
2022/05/15 04:22:30;;;;;;;0.30;0.30;;;7.70;99.90;;;;;;5088948;28;20873;-93
2022/05/15 04:24:55;;;;;;;0.30;0.30;;;7.70;99.90;;;;;;5071261;28;20557;-92
2022/05/15 04:27:21;;;;;;;0.30;0.30;;;7.70;99.90;;;;;;5092022;28;20256;-91
2022/05/15 04:29:46;;;;;;;0.60;0.60;;;7.80;99.90;;;;;;5091526;28;20268;-93
2022/05/15 04:32:12;;;;;;;0.37;0.37;;;7.90;99.90;;;;;;5092161;28;20184;-93
2022/05/15 04:34:37;;;;;;;0.50;0.50;;;7.90;99.90;;;;;;5091369;28;20598;-93
2022/05/15 04:37:03;;;;;;;0.30;0.30;;;8.00;99.90;;;;;;5092771;28;20173;-93
2022/05/15 04:39:32;;;;;;;0.27;0.27;;;8.00;99.90;;;;;;5084688;28;20272;-94
2022/05/15 04:42:00;;;;;;;0.40;0.40;;;7.90;99.90;;;;;;5090339;28;20215;-92
2022/05/15 04:44:25;;;;;;;0.30;0.30;;;8.00;99.90;;;;;;5089120;28;20435;-93
2022/05/15 04:46:51;;;;;;;0.37;0.37;;;8.10;99.90;;;;;;5092482;28;20452;-92
2022/05/15 04:49:16;;;;;;;0.27;0.27;;;8.10;99.90;;;;;;5090282;28;20208;-93
2022/05/15 04:51:42;;;;;;;0.30;0.30;;;8.20;99.90;;;;;;5089362;28;20253;-90
2022/05/15 04:54:07;;;;;;;0.40;0.40;;;8.30;99.90;;;;;;5091369;28;20189;-91
2022/05/15 04:56:33;;;;;;;0.23;0.23;;;8.30;99.90;;;;;;5089728;28;20211;-92
2022/05/15 04:58:58;;;;;;;0.30;0.30;;;8.30;99.90;;;;;;5091237;28;20692;-91
2022/05/15 05:01:25;;;;;;;0.20;0.20;;;8.40;99.90;;;;;;5088612;28;20205;-95
2022/05/15 05:03:53;;;;;;;0.20;0.20;;;8.40;99.90;;;;;;5087929;28;20835;-92
2022/05/15 05:06:19;;;;;;;0.30;0.30;;;8.60;99.90;;;;;;5078472;28;20448;-90
2022/05/15 05:08:44;;;;;;;0.20;0.20;;;8.80;99.90;;;;;;5074016;28;20957;-91
2022/05/15 05:11:10;;;;;;;0.30;0.30;;;8.90;99.90;;;;;;5072877;28;20173;-90
2022/05/15 05:13:35;;;;;;;0.30;0.30;;;9.00;99.90;;;;;;5091199;28;20272;-91
2022/05/15 05:16:00;;;;;;;0.30;0.30;;;9.10;99.90;;;;;;5073282;28;20584;-94
2022/05/15 05:18:26;;;;;;;0.27;0.27;;;9.20;99.90;;;;;;5068541;28;20181;-95
2022/05/15 05:20:51;;;;;;;0.30;0.30;;;9.30;99.90;;;;;;5094972;28;20189;-96
2022/05/15 05:23:17;;;;;;;0.50;0.50;;;9.40;99.90;;;;;;5094207;28;22414;-93
2022/05/15 05:25:42;;;;;;;0.77;0.77;;;9.40;99.90;;;;;;5091973;28;20224;-95
2022/05/15 05:28:08;;;;;;;0.30;0.30;;;9.50;99.90;;;;;;5092877;28;20682;-96
2022/05/15 05:30:34;;;;;;;0.20;0.20;;;9.50;99.90;;;;;;5096082;28;20173;-96
2022/05/15 05:33:00;;;;;;;0.20;0.20;;;9.60;99.90;;;;;;5091534;28;20483;-96
2022/05/15 05:35:27;;;;;;;0.20;0.20;;;9.70;99.90;;;;;;5070149;28;20188;-94
2022/05/15 05:37:53;;;;;;;0.10;0.10;;;9.80;99.90;;;;;;5087698;28;20710;-93
2022/05/15 05:40:19;;;;;;;0.20;0.20;;;9.90;99.90;;;;;;5090192;28;20475;-93
2022/05/15 05:42:45;;;;;;;0.20;0.20;;;10.20;99.90;;;;;;5092556;28;20478;-91
2022/05/15 05:45:11;;;;;;;0.30;0.30;;;10.10;99.90;;;;;;5090453;28;20454;-92
2022/05/15 05:47:37;;;;;;;0.37;0.37;;;10.10;99.90;;;;;;5073792;28;20177;-91
2022/05/15 05:50:08;;;;;;;0.30;0.30;;;10.30;99.90;;;;;;5064261;28;20446;-91
2022/05/15 05:52:38;;;;;;;0.47;0.47;;;10.40;99.90;;;;;;5088864;28;20489;-91
2022/05/15 05:55:06;;;;;;;0.63;0.63;;;10.50;99.90;;;;;;5089813;28;20476;-90
2022/05/15 05:57:31;;;;;;;0.30;0.30;;;10.60;99.90;;;;;;5090841;28;20457;-89
2022/05/15 05:59:57;;;;;;;0.50;0.50;;;10.60;99.90;;;;;;5089307;28;20518;-93
2022/05/15 06:02:25;;;;;;;0.87;0.87;;;10.70;99.90;;;;;;5071067;28;20228;-90
2022/05/15 06:04:50;;;;;;;0.30;0.30;;;10.90;99.90;;;;;;5089530;28;21037;-91
2022/05/15 06:07:23;;;;;;;0.20;0.20;;;11.00;99.90;;;;;;5087335;28;20450;-89
2022/05/15 06:09:50;;;;;;;0.10;0.10;;;11.10;99.90;;;;;;5082253;28;20182;-88
2022/05/15 06:12:21;;;;;;;0.10;0.10;;;11.20;99.90;;;;;;5084640;28;20474;-91
2022/05/15 06:14:46;;;;;;;0.10;0.10;;;11.40;99.90;;;;;;5085182;28;20439;-92
2022/05/15 06:17:12;;;;;;;0.30;0.30;;;11.40;99.90;;;;;;5088484;28;20450;-90
2022/05/15 06:19:40;;;;;;;0.40;0.40;;;11.50;99.90;;;;;;5090185;28;20204;-90
2022/05/15 06:22:06;;;;;;;0.60;0.60;;;11.60;99.90;;;;;;5085231;28;20216;-91
2022/05/15 06:24:32;;;;;;;0.30;0.30;;;11.60;99.90;;;;;;5074475;28;20435;-92
2022/05/15 06:26:59;;;;;;;0.10;0.10;;;11.80;99.90;;;;;;5071958;28;20446;-91
2022/05/15 06:29:26;;;;;;;0.10;0.10;;;11.60;99.90;;;;;;5084740;28;20185;-89
2022/05/15 06:31:52;;;;;;;0.40;0.40;;;11.60;99.90;;;;;;5072602;28;20476;-93
2022/05/15 06:34:17;;;;;;;0.20;0.20;;;11.70;99.90;;;;;;5090860;28;20434;-89
2022/05/15 06:36:43;;;;;;;0.10;0.10;;;11.70;99.90;;;;;;5085831;28;20287;-88
2022/05/15 06:39:09;;;;;;;0.10;0.10;;;11.70;99.90;;;;;;5072113;28;20272;-87
2022/05/15 06:41:35;;;;;;;0.33;0.33;;;11.80;99.90;;;;;;5082418;28;20471;-87
2022/05/15 06:44:01;;;;;;;0.30;0.30;;;11.90;99.90;;;;;;5089159;28;20977;-88
2022/05/15 06:46:28;;;;;;;0.10;0.10;;;11.90;99.90;;;;;;5088260;28;20181;-85
2022/05/15 06:48:54;;;;;;;0.10;0.10;;;12.00;99.90;;;;;;5079194;28;20193;-85
2022/05/15 06:51:19;;;;;;;0.10;0.10;;;12.00;99.90;;;;;;5077371;28;20463;-85
2022/05/15 06:53:46;;;;;;;0.10;0.10;;;12.00;99.90;;;;;;5089951;28;20502;-86
2022/05/15 06:58:57;;;;;;;0.20;0.20;;;11.80;99.90;;;;;;5085813;28;20484;-86
2022/05/15 07:01:22;;;;;;;0.20;0.20;;;12.30;99.90;;;;;;5090672;28;20479;-84
2022/05/15 07:03:48;;;;;;;0.10;0.10;;;12.30;99.90;;;;;;5084632;28;20256;-86
2022/05/15 07:06:15;;;;;;;0.10;0.10;;;12.10;99.90;;;;;;5086133;28;20189;-85
2022/05/15 07:08:41;;;;;;;0.10;0.10;;;12.20;99.90;;;;;;5088537;28;20532;-85
2022/05/15 07:11:06;;;;;;;0.10;0.10;;;12.20;99.90;;;;;;5065725;28;21035;-86
2022/05/15 07:13:32;;;;;;;0.10;0.10;;;12.50;99.90;;;;;;5072253;28;20416;-86
2022/05/15 07:15:58;;;;;;;0.10;0.10;;;12.70;99.90;;;;;;5084258;28;20177;-85
2022/05/15 07:18:24;;;;;;;0.10;0.10;;;13.10;99.90;;;;;;5083728;28;20192;-85
2022/05/15 07:20:51;;;;;;;0.10;0.10;;;13.30;99.90;;;;;;5088633;28;20439;-85
2022/05/15 07:23:17;;;;;;;0.10;0.10;;;13.50;99.90;;;;;;5086602;28;20199;-85
2022/05/15 07:25:42;;;;;;;0.10;0.10;;;13.60;99.90;;;;;;5068772;28;20435;-85
2022/05/15 07:28:07;;;;;;;0.10;0.10;;;13.10;99.90;;;;;;5088296;28;20501;-83
2022/05/15 07:30:33;;;;;;;0.10;0.10;;;12.90;99.90;;;;;;5088511;28;20169;-85
2022/05/15 07:32:59;;;;;;;0.20;0.20;;;12.80;99.90;;;;;;5087868;28;20846;-86
2022/05/15 07:35:24;;;;;;;0.30;0.30;;;13.30;99.90;;;;;;5088938;28;20181;-87
2022/05/15 07:37:50;;;;;;;0.10;0.10;;;13.00;99.90;;;;;;5090663;28;20602;-85
2022/05/15 07:40:15;;;;;;;0.17;0.17;;;13.00;99.90;;;;;;5087482;28;20612;-86
2022/05/15 07:42:43;;;;;;;0.80;0.80;;;13.10;99.90;;;;;;5067056;28;20221;-86
2022/05/15 07:45:09;;;;;;;0.70;0.70;;;13.30;99.90;;;;;;5088205;28;20667;-86
2022/05/15 07:47:35;;;;;;;0.30;0.30;;;12.90;99.90;;;;;;5090333;28;20442;-86
2022/05/15 07:50:00;;;;;;;0.30;0.30;;;12.90;99.90;;;;;;5090929;28;20443;-85
2022/05/15 07:52:26;;;;;;;0.60;0.60;;;13.40;99.90;;;;;;5088575;28;20221;-85
2022/05/15 07:54:51;;;;;;;0.30;0.30;;;13.20;99.90;;;;;;5081159;28;20184;-85
2022/05/15 07:57:17;;;;;;;0.30;0.30;;;13.50;99.90;;;;;;5078783;28;20646;-85
2022/05/15 07:59:43;;;;;;;0.10;0.10;;;13.60;99.90;;;;;;5091145;28;20253;-84
2022/05/15 08:02:09;;;;;;;0.20;0.20;;;13.10;99.90;;;;;;5090143;28;20201;-86
2022/05/15 08:08:00;;;;;;;0.20;0.20;;;13.30;99.90;;;;;;5088577;28;20281;-85
2022/05/15 08:10:07;;;;;;;0.10;0.10;;;13.60;99.90;;;;;;5091431;28;20477;-84
2022/05/15 08:12:34;;;;;;;0.10;0.10;;;13.90;99.90;;;;;;5089624;28;20927;-86
2022/05/15 08:15:00;;;;;;;0.10;0.10;;;13.90;99.90;;;;;;5090926;28;20868;-84
2022/05/15 08:17:26;;;;;;;0.10;0.10;;;14.20;99.90;;;;;;5071376;28;20449;-85
2022/05/15 08:25:21;;;;;;;0.10;0.10;;;14.60;99.90;;;;;;5090292;28;20488;-85
2022/05/15 08:27:47;;;;;;;0.10;0.10;;;13.80;99.90;;;;;;5076388;28;20563;-85
2022/05/15 08:30:13;;;;;;;0.10;0.10;;;14.10;99.90;;;;;;5090846;28;20173;-86
2022/05/15 08:32:39;;;;;;;0.10;0.10;;;14.70;99.90;;;;;;5089703;28;20181;-85
2022/05/15 08:35:05;;;;;;;0.10;0.10;;;14.70;99.90;;;;;;5071063;28;20426;-86
2022/05/15 08:37:30;;;;;;;0.10;0.10;;;14.80;99.90;;;;;;5086363;28;20192;-85
2022/05/15 08:39:56;;;;;;;0.10;0.10;;;14.50;99.90;;;;;;5079533;28;20439;-86
2022/05/15 08:42:55;;;;;;;0.10;0.10;;;14.50;99.90;;;;;;5083453;28;20293;-85
2022/05/15 08:45:25;;;;;;;0.10;0.10;;;14.90;99.90;;;;;;5086937;28;20522;-84
2022/05/15 08:48:01;;;;;;;0.10;0.10;;;15.10;99.90;;;;;;5090131;28;20442;-84
2022/05/15 08:50:32;;;;;;;0.10;0.10;;;15.60;99.90;;;;;;5075178;28;20439;-85
2022/05/15 08:53:02;;;;;;;0.10;0.10;;;15.80;99.90;;;;;;5082580;28;20475;-87
2022/05/15 08:56:07;;;;;;;0.10;0.10;;;16.20;99.90;;;;;;5081622;28;20454;-87
2022/05/15 08:58:54;;;;;;;0.10;0.10;;;16.20;99.90;;;;;;5005034;28;20859;-87
2022/05/15 09:01:26;;;;;;;0.20;0.20;;;16.10;99.90;;;;;;5079698;28;20479;-83
2022/05/15 09:03:54;;;;;;;0.20;0.20;;;16.10;99.90;;;;;;5067611;28;20454;-84
2022/05/15 09:06:50;;;;;;;0.10;0.10;;;16.00;99.90;;;;;;5087750;28;20441;-87
2022/05/15 09:09:46;;;;;;;0.10;0.10;;;16.40;99.90;;;;;;5052729;28;20456;-87
2022/05/15 09:12:23;;;;;;;0.10;0.10;;;16.90;99.90;;;;;;5075006;28;20834;-83
2022/05/15 09:14:55;;;;;;;0.10;0.10;;;16.70;99.90;;;;;;5087035;28;20442;-84
2022/05/15 09:17:42;;;;;;;0.10;0.10;;;17.10;99.90;;;;;;5086399;28;20443;-85
2022/05/15 09:20:15;;;;;;;0.10;0.10;;;17.20;99.90;;;;;;5081688;28;20442;-82
2022/05/15 09:22:55;;;;;;;0.10;0.10;;;17.10;99.90;;;;;;5072128;28;20511;-86
2022/05/15 09:25:24;;;;;;;0.10;0.10;;;16.90;99.90;;;;;;5078707;28;20518;-86
2022/05/15 09:28:09;;;;;;;0.10;0.10;;;17.30;99.90;;;;;;5086391;28;21758;-87
2022/05/15 09:30:47;;;;;;;0.10;0.10;;;17.50;99.90;;;;;;5084259;28;20435;-85
2022/05/15 09:33:37;;;;;;;0.00;0.00;;;17.50;99.90;;;;;;5083969;28;21038;-85
2022/05/15 09:36:43;;;;;;;0.00;0.00;;;17.90;99.90;;;;;;5086032;28;21214;-85
2022/05/15 09:39:23;;;;;;;0.10;0.10;;;17.80;99.90;;;;;;4981850;28;20860;-83
2022/05/15 09:45:20;;;;;;;0.10;0.10;;;17.60;99.90;;;;;;5068230;28;20454;-83
2022/05/15 09:47:51;;;;;;;0.20;0.20;;;17.90;99.90;;;;;;5079476;28;20963;-84
2022/05/15 09:50:42;;;;;;;0.00;0.00;;;18.10;99.90;;;;;;5085930;28;20447;-84
2022/05/15 09:53:36;;;;;;;0.10;0.10;;;17.60;99.90;;;;;;5085464;28;20470;-83
2022/05/15 09:56:01;;;;;;;0.10;0.10;;;18.10;99.90;;;;;;5087167;28;20551;-87
2022/05/15 09:58:37;;;;;;;0.00;0.00;;;18.90;99.90;;;;;;5093869;28;20537;-87
2022/05/15 10:01:14;;;;;;;0.00;0.00;;;19.00;99.90;;;;;;5085856;28;21026;-86
2022/05/15 10:03:40;;;;;;;0.00;0.00;;;18.50;99.90;;;;;;5066663;28;20539;-88
2022/05/15 10:06:08;;;;;;;0.00;0.00;;;19.00;99.90;;;;;;5090350;28;20550;-91
2022/05/15 10:08:35;;;;;;;0.00;0.00;;;19.50;99.90;;;;;;5066868;28;20663;-88
2022/05/15 10:11:10;;;;;;;0.00;0.00;;;19.20;99.90;;;;;;5087650;28;20458;-86
2022/05/15 10:13:37;;;;;;;0.10;0.00;;;19.70;99.90;;;;;;5091052;28;20448;-85
2022/05/15 10:16:31;;;;;;;0.00;0.00;;;20.10;99.90;;;;;;5092663;28;20455;-84
2022/05/15 10:19:03;;;;;;;0.00;0.00;;;19.80;99.90;;;;;;5085951;28;20496;-86
2022/05/15 10:21:40;;;;;;;0.10;0.10;;;19.40;99.90;;;;;;5090292;28;20467;-86
2022/05/15 10:24:10;;;;;;;0.10;0.10;;;19.10;99.90;;;;;;5091614;28;20436;-85
2022/05/15 10:26:50;;;;;;;0.10;0.10;;;19.90;99.90;;;;;;5090043;28;20570;-86
2022/05/15 10:29:23;;;;;;;0.10;0.10;;;20.20;99.90;;;;;;5090103;28;20451;-88
2022/05/15 10:31:56;;;;;;;0.00;0.00;;;20.40;99.90;;;;;;5088746;28;20439;-87
2022/05/15 10:34:25;;;;;;;0.10;0.10;;;20.20;99.90;;;;;;5092533;28;20443;-87
2022/05/15 10:37:08;;;;;;;0.10;0.00;;;19.90;99.90;;;;;;5089380;28;21035;-89
2022/05/15 10:39:52;;;;;;;0.10;0.10;;;20.00;99.90;;;;;;5054957;28;20957;-87
2022/05/15 10:42:30;;;;;;;0.10;0.00;;;20.40;99.90;;;;;;5090284;28;20474;-91
2022/05/15 10:45:20;;;;;;;0.10;0.00;;;21.10;99.90;;;;;;5088999;28;20435;-85
2022/05/15 10:48:03;;;;;;;0.10;0.00;;;21.40;99.90;;;;;;5067759;28;20508;-86
2022/05/15 10:50:38;;;;;;;0.10;0.00;;;21.90;99.90;;;;;;5074192;28;20454;-86
2022/05/15 10:59:56;;;;;;;0.10;0.00;;;21.80;99.30;;;;;;5088774;28;20457;-85
2022/05/15 11:02:43;;;;;;;0.10;0.00;;;21.50;98.00;;;;;;5088263;28;20479;-83
2022/05/15 11:05:53;;;;;;;0.10;0.10;;;22.30;99.90;;;;;;5090956;28;20439;-88
2022/05/15 11:08:46;;;;;;;0.10;0.00;;;22.00;98.50;;;;;;5024063;28;20443;-88
2022/05/15 11:11:30;;;;;;;0.10;0.00;;;22.40;96.60;;;;;;5089682;28;20443;-86
2022/05/15 11:14:34;;;;;;;0.10;0.00;;;23.30;98.70;;;;;;5089516;28;20446;-87
2022/05/15 11:17:23;;;;;;;0.00;0.00;;;23.60;96.60;;;;;;4997048;28;20435;-85
2022/05/15 11:19:50;;;;;;;0.10;0.00;;;23.70;97.10;;;;;;5080169;28;20471;-86
2022/05/15 11:22:33;;;;;;;0.00;0.00;;;23.60;98.10;;;;;;5090445;28;20941;-84
2022/05/15 11:25:20;;;;;;;0.00;0.00;;;22.30;97.40;;;;;;5091627;28;20442;-84
2022/05/15 11:27:55;;;;;;;0.00;0.00;;;23.00;99.30;;;;;;5094232;28;20880;-86
2022/05/15 11:30:29;;;;;;;0.00;0.00;;;22.60;95.70;;;;;;5102211;28;20580;-83
2022/05/15 11:32:55;;;;;;;0.00;0.00;;;23.10;96.90;;;;;;5083693;28;20459;-85
2022/05/15 11:35:21;;;;;;;0.00;0.00;;;24.10;97.50;;;;;;5087571;28;20447;-83
2022/05/15 11:37:55;;;;;;;0.00;0.00;;;24.10;94.10;;;;;;5089979;28;20193;-82
2022/05/15 11:40:39;;;;;;;0.00;0.00;;;23.60;95.80;;;;;;5085362;28;20188;-84
2022/05/15 11:43:33;;;;;;;0.00;0.00;;;23.90;96.80;;;;;;5080830;28;20490;-84
2022/05/15 11:46:08;;;;;;;0.00;0.00;;;24.30;96.70;;;;;;5074796;28;20461;-84
2022/05/15 11:48:52;;;;;;;0.00;0.00;;;24.20;94.30;;;;;;5089332;28;20963;-84
2022/05/15 11:51:25;;;;;;;0.00;0.00;;;24.10;92.50;;;;;;5080742;28;20533;-84
2022/05/15 11:53:56;;;;;;;0.10;0.00;;;25.10;90.70;;;;;;5078972;28;20958;-83
2022/05/15 11:56:39;;;;;;;0.00;0.00;;;24.40;95.00;;;;;;5067001;28;20778;-82
2022/05/15 11:59:21;;;;;;;0.10;0.10;;;23.90;95.90;;;;;;5088546;28;20447;-84
2022/05/15 12:01:49;;;;;;;0.00;0.00;;;23.00;96.80;;;;;;5070036;28;20531;-84
2022/05/15 12:04:18;;;;;;;0.00;0.00;;;23.00;93.80;;;;;;5085018;28;20435;-85
2022/05/15 12:06:55;;;;;;;0.00;0.00;;;23.50;92.50;;;;;;5089339;28;20431;-83
2022/05/15 12:09:21;;;;;;;0.00;0.00;;;24.20;93.10;;;;;;5080368;28;20441;-84
2022/05/15 12:11:51;;;;;;;0.00;0.00;;;24.50;90.00;;;;;;5065633;28;20435;-84
2022/05/15 12:14:26;;;;;;;0.00;0.00;;;24.40;89.90;;;;;;5083448;28;20276;-84
2022/05/15 12:16:59;;;;;;;0.00;0.00;;;24.50;91.00;;;;;;5071134;28;20808;-82
2022/05/15 12:19:33;;;;;;;0.00;0.00;;;24.30;91.40;;;;;;5078439;28;20427;-85
2022/05/15 12:22:02;;;;;;;0.00;0.00;;;24.40;93.00;;;;;;5083338;28;20608;-84
2022/05/15 12:24:32;;;;;;;0.00;0.00;;;24.20;91.30;;;;;;5082924;28;20510;-83
2022/05/15 12:27:20;;;;;;;0.00;0.00;;;24.40;93.10;;;;;;5086053;28;20433;-83
2022/05/15 12:29:49;;;;;;;0.00;0.00;;;24.60;86.80;;;;;;5084672;28;20473;-83
2022/05/15 12:32:20;;;;;;;0.00;0.00;;;24.80;90.80;;;;;;5065107;28;20526;-83
2022/05/15 12:34:49;;;;;;;0.00;0.00;;;24.20;89.80;;;;;;5081149;28;20451;-82
2022/05/15 12:37:22;;;;;;;0.00;0.00;;;24.70;85.20;;;;;;5085486;28;20439;-83
2022/05/15 12:39:50;;;;;;;0.00;0.00;;;25.00;88.80;;;;;;5069833;28;20500;-84
2022/05/15 12:42:20;;;;;;;0.00;0.00;;;25.30;86.30;;;;;;5079877;28;21005;-81
2022/05/15 12:44:46;;;;;;;0.00;0.00;;;24.50;90.60;;;;;;5085294;28;20443;-83
2022/05/15 12:47:22;;;;;;;0.00;0.00;;;24.80;93.10;;;;;;5085638;28;20792;-83
2022/05/15 12:49:47;;;;;;;0.00;0.00;;;24.70;90.30;;;;;;5073762;28;20185;-82
2022/05/15 12:52:14;;;;;;;0.00;0.00;;;25.20;93.50;;;;;;5075341;28;20471;-83
2022/05/15 12:54:41;;;;;;;0.00;0.00;;;26.10;92.90;;;;;;5080599;28;21026;-83
2022/05/15 12:57:12;;;;;;;0.00;0.00;;;25.60;91.40;;;;;;5087129;28;20440;-82
2022/05/15 12:59:41;;;;;;;0.00;0.00;;;25.00;91.80;;;;;;5078457;28;21021;-83
2022/05/15 13:02:36;;;;;;;0.00;0.00;;;25.00;93.30;;;;;;5088335;28;20990;-84
2022/05/15 13:05:18;;;;;;;0.00;0.00;;;25.00;91.10;;;;;;5071863;28;20443;-83
2022/05/15 13:07:44;;;;;;;0.00;0.00;;;24.90;93.90;;;;;;5089613;28;20442;-84
2022/05/15 13:10:18;;;;;;;0.00;0.00;;;24.50;91.30;;;;;;5088849;28;20446;-85
2022/05/15 13:13:04;;;;;;;0.00;0.00;;;23.70;93.70;;;;;;5089734;28;20312;-85
2022/05/15 13:15:31;;;;;;;0.00;0.00;;;24.00;93.70;;;;;;5085623;28;20526;-86
2022/05/15 13:18:04;;;;;;;0.00;0.00;;;23.90;91.90;;;;;;5089333;28;20813;-84
2022/05/15 13:20:30;;;;;;;0.00;0.00;;;23.90;92.80;;;;;;5086755;28;20549;-85
2022/05/15 13:22:59;;;;;;;0.00;0.00;;;23.90;94.20;;;;;;5087382;28;20577;-85
2022/05/15 13:25:31;;;;;;;0.00;0.00;;;23.80;94.20;;;;;;5094598;28;20942;-85
2022/05/15 13:27:57;;;;;;;0.07;0.07;;;23.10;93.40;;;;;;5096262;28;20469;-85
2022/05/15 13:30:26;;;;;;;0.13;0.13;;;22.50;94.70;;;;;;5078101;28;21045;-85